Time;durP1;ratioP1;P1;durP2;ratioP2;P2;SDS_P1;SDS_P2;PMS_P1;PMS_P2;Temp;Humidity;BMP_temperature;BMP_pressure;BME280_temperature;BME280_humidity;BME280_pressure;Samples;Min_cycle;Max_cycle;Signal;HPM_P1;HPM_P2
2023/04/23 00:01:28;;;;;;;25.13;17.00;;;;;;;12.60;61.64;99072.41;5033006;28;20033;-75
2023/04/23 00:03:57;;;;;;;25.92;18.48;;;;;;;12.62;61.93;99076.63;5032648;28;20021;-76
2023/04/23 00:06:25;;;;;;;23.17;17.88;;;;;;;12.59;61.89;99068.97;5033052;28;20558;-75
2023/04/23 00:08:52;;;;;;;22.85;17.05;;;;;;;12.57;62.30;99072.63;5032914;28;20108;-76
2023/04/23 00:11:18;;;;;;;22.05;17.90;;;;;;;12.46;62.27;99065.47;5032768;28;20030;-75
2023/04/23 00:13:45;;;;;;;23.30;18.00;;;;;;;12.39;63.06;99054.59;5032592;28;20032;-76
2023/04/23 00:16:11;;;;;;;24.50;18.08;;;;;;;12.37;63.98;99071.28;5032730;28;20116;-75
2023/04/23 00:18:37;;;;;;;24.52;17.60;;;;;;;12.34;63.14;99085.34;5032240;28;20121;-75
2023/04/23 00:21:02;;;;;;;24.58;18.35;;;;;;;12.41;63.54;99078.00;5032663;28;20465;-76
2023/04/23 00:23:28;;;;;;;28.38;18.10;;;;;;;12.35;63.95;99070.56;5032528;28;20104;-76
2023/04/23 00:25:53;;;;;;;28.25;19.13;;;;;;;12.24;63.06;99069.44;5032406;28;20053;-75
2023/04/23 00:28:18;;;;;;;22.35;17.00;;;;;;;12.28;64.30;99070.09;5032645;28;20022;-75
2023/04/23 00:30:44;;;;;;;24.00;17.42;;;;;;;12.27;63.95;99078.03;5032442;28;20465;-75
2023/04/23 00:33:09;;;;;;;26.85;18.65;;;;;;;12.18;63.93;99062.00;5032530;28;20102;-76
2023/04/23 00:35:34;;;;;;;22.92;17.95;;;;;;;12.02;64.49;99040.41;5032338;28;20049;-76
2023/04/23 00:38:00;;;;;;;28.42;18.90;;;;;;;12.07;64.14;99059.22;5032284;28;20036;-75
2023/04/23 00:40:25;;;;;;;30.35;19.27;;;;;;;12.07;64.24;99064.44;5032538;28;20032;-76
2023/04/23 00:42:52;;;;;;;28.38;19.50;;;;;;;12.02;64.61;99070.88;5032198;28;20029;-75
2023/04/23 00:45:18;;;;;;;28.95;19.75;;;;;;;12.05;64.75;99071.53;5032238;28;20083;-75
2023/04/23 00:47:45;;;;;;;33.13;21.63;;;;;;;12.02;65.58;99065.66;5031867;28;20091;-75
2023/04/23 00:50:12;;;;;;;30.80;20.25;;;;;;;11.99;65.30;99062.28;5032093;28;20373;-76
2023/04/23 00:52:39;;;;;;;29.15;20.88;;;;;;;11.83;65.49;99047.69;5032203;28;20059;-76
2023/04/23 00:55:08;;;;;;;29.13;20.38;;;;;;;11.73;65.90;99026.50;5031998;28;20022;-76
2023/04/23 00:57:37;;;;;;;26.98;17.88;;;;;;;11.80;65.71;99058.25;5032101;28;20026;-75
2023/04/23 01:00:05;;;;;;;32.13;20.98;;;;;;;11.60;66.10;99046.44;5031773;28;20136;-75
2023/04/23 01:02:31;;;;;;;28.08;20.27;;;;;;;11.70;65.99;99052.78;5031909;28;20029;-76
2023/04/23 01:04:58;;;;;;;29.88;20.55;;;;;;;11.63;65.99;99041.88;5031911;28;20382;-75
2023/04/23 01:07:25;;;;;;;25.15;19.58;;;;;;;11.69;66.07;99043.28;5032050;28;20423;-75
2023/04/23 01:09:50;;;;;;;26.00;19.75;;;;;;;11.58;65.84;99037.84;5031789;28;20108;-76
2023/04/23 01:12:16;;;;;;;28.52;19.88;;;;;;;11.54;66.41;99039.81;5031887;28;20108;-76
2023/04/23 01:14:42;;;;;;;25.38;18.73;;;;;;;11.37;66.64;99037.38;5031860;28;20053;-75
2023/04/23 01:17:08;;;;;;;30.17;19.92;;;;;;;11.51;67.14;99063.50;5031516;28;20485;-75
2023/04/23 01:19:34;;;;;;;29.50;20.58;;;;;;;11.49;67.46;99058.34;5032000;28;20029;-75
2023/04/23 01:22:00;;;;;;;28.75;20.25;;;;;;;11.27;67.60;99046.69;5031532;28;20478;-75
2023/04/23 01:24:30;;;;;;;29.58;21.58;;;;;;;11.23;67.71;99044.25;5031816;28;20029;-76
2023/04/23 01:26:57;;;;;;;26.25;20.98;;;;;;;11.30;67.68;99057.78;5031512;28;20032;-76
2023/04/23 01:29:22;;;;;;;32.85;20.20;;;;;;;11.00;68.02;99031.75;5031675;28;20025;-75
2023/04/23 01:31:49;;;;;;;28.63;19.85;;;;;;;10.93;68.38;99043.44;5033200;28;20033;-75
2023/04/23 01:34:14;;;;;;;27.63;21.27;;;;;;;10.98;68.67;99028.38;5036101;28;20057;-75
2023/04/23 01:36:40;;;;;;;26.65;20.60;;;;;;;11.02;68.37;99032.47;5035846;28;20131;-76
2023/04/23 01:39:06;;;;;;;28.55;20.85;;;;;;;11.04;68.42;99033.25;5035313;28;20595;-75
2023/04/23 01:41:33;;;;;;;29.33;20.67;;;;;;;11.02;68.49;99034.25;5035594;28;20112;-76
2023/04/23 01:43:59;;;;;;;27.77;19.77;;;;;;;10.93;68.76;99026.03;5035272;28;20033;-76
2023/04/23 01:46:24;;;;;;;28.17;19.92;;;;;;;10.96;68.99;99038.06;5035686;28;20481;-75
2023/04/23 01:48:50;;;;;;;27.27;18.80;;;;;;;10.98;68.88;99038.78;5035656;28;20424;-76
2023/04/23 01:51:15;;;;;;;29.15;20.80;;;;;;;10.95;69.09;99028.53;5035579;28;20107;-75
2023/04/23 01:53:40;;;;;;;27.88;20.63;;;;;;;10.82;68.80;99004.13;5035438;28;20108;-75
2023/04/23 01:56:08;;;;;;;28.48;19.58;;;;;;;10.79;69.30;99018.19;5035253;28;20025;-76
2023/04/23 01:58:34;;;;;;;27.95;18.52;;;;;;;10.79;69.52;99031.22;5035269;28;20032;-76
2023/04/23 02:00:59;;;;;;;23.83;18.35;;;;;;;10.85;69.60;99025.63;5035224;28;20021;-75
2023/04/23 02:03:24;;;;;;;26.20;19.20;;;;;;;10.92;69.21;99034.78;5035437;28;20047;-76
2023/04/23 02:05:53;;;;;;;29.40;18.95;;;;;;;10.67;69.61;99009.31;5035057;28;20026;-76
2023/04/23 02:08:18;;;;;;;24.45;18.77;;;;;;;10.88;69.62;99035.06;5035302;28;20029;-76
2023/04/23 02:10:43;;;;;;;24.27;18.60;;;;;;;10.76;69.51;99020.13;5035008;28;20048;-76
2023/04/23 02:13:09;;;;;;;24.45;18.50;;;;;;;10.87;69.62;99028.13;5034752;28;20033;-75
2023/04/23 02:15:36;;;;;;;25.88;17.90;;;;;;;10.89;69.70;99027.13;5034863;28;20029;-75
2023/04/23 02:18:02;;;;;;;27.85;18.75;;;;;;;10.96;69.61;99035.44;5034842;28;20040;-76
2023/04/23 02:20:27;;;;;;;26.70;19.83;;;;;;;10.85;69.35;98996.97;5035011;28;20477;-76
2023/04/23 02:22:53;;;;;;;25.90;18.73;;;;;;;10.99;69.38;99020.44;5034706;28;20461;-75
2023/04/23 02:25:20;;;;;;;28.08;19.10;;;;;;;10.93;69.33;99018.22;5034801;28;20108;-76
2023/04/23 02:27:46;;;;;;;24.63;17.63;;;;;;;10.96;69.63;99022.44;5034688;28;20420;-75
2023/04/23 02:30:11;;;;;;;24.80;16.17;;;;;;;10.67;69.84;98998.88;5034440;28;20079;-76
2023/04/23 02:32:37;;;;;;;21.83;17.05;;;;;;;10.81;69.80;99016.31;5034540;28;20254;-75
2023/04/23 02:35:05;;;;;;;24.40;17.20;;;;;;;10.95;69.82;99011.13;5034525;28;20036;-76
2023/04/23 02:37:32;;;;;;;22.58;17.05;;;;;;;10.98;69.43;99017.94;5034503;28;20029;-76
2023/04/23 02:39:57;;;;;;;24.00;17.50;;;;;;;11.00;69.23;99010.91;5034326;28;20032;-75
2023/04/23 02:42:22;;;;;;;23.45;17.35;;;;;;;10.97;69.26;99009.28;5034157;28;20033;-75
2023/04/23 02:44:47;;;;;;;24.30;16.88;;;;;;;10.92;69.25;98998.31;5034627;28;20025;-76
2023/04/23 02:47:13;;;;;;;21.98;15.35;;;;;;;10.90;69.54;99007.13;5034126;28;20030;-75
2023/04/23 02:49:38;;;;;;;19.30;14.80;;;;;;;10.90;69.69;99017.56;5034760;28;20028;-76
2023/04/23 02:52:04;;;;;;;23.55;16.55;;;;;;;10.81;69.63;98987.66;5034067;28;20022;-75
2023/04/23 02:54:31;;;;;;;26.52;17.35;;;;;;;10.90;69.88;99009.75;5034495;28;20029;-76
2023/04/23 02:56:57;;;;;;;21.58;17.00;;;;;;;10.86;69.75;99016.88;5033872;28;20488;-76
2023/04/23 02:59:22;;;;;;;23.92;15.82;;;;;;;10.70;69.83;98996.13;5034351;28;20033;-75
2023/04/23 03:01:47;;;;;;;22.27;15.25;;;;;;;10.78;70.26;99011.28;5034078;28;20462;-76
2023/04/23 03:04:13;;;;;;;22.80;15.73;;;;;;;10.66;70.10;98991.16;5033963;28;20017;-75
2023/04/23 03:06:38;;;;;;;21.35;16.17;;;;;;;10.75;70.40;99008.88;5034089;28;20389;-76
2023/04/23 03:09:03;;;;;;;23.63;15.48;;;;;;;10.74;70.29;99012.38;5033899;28;20113;-75
2023/04/23 03:11:29;;;;;;;28.30;15.93;;;;;;;10.67;70.51;98998.06;5033863;28;20025;-76
2023/04/23 03:13:54;;;;;;;22.63;15.98;;;;;;;10.73;70.41;99008.09;5033890;28;20096;-75
2023/04/23 03:16:20;;;;;;;22.65;17.23;;;;;;;10.82;70.17;99014.56;5034015;28;20370;-75
2023/04/23 03:18:45;;;;;;;21.55;15.65;;;;;;;10.70;70.05;98990.91;5033902;28;20029;-76
2023/04/23 03:21:10;;;;;;;19.88;15.32;;;;;;;10.94;70.04;99006.03;5033782;28;20091;-76
2023/04/23 03:23:36;;;;;;;22.73;15.27;;;;;;;10.83;70.04;98998.84;5033725;28;20022;-75
2023/04/23 03:26:01;;;;;;;21.23;14.18;;;;;;;10.64;70.30;98985.19;5033414;28;20091;-75
2023/04/23 03:28:26;;;;;;;22.90;14.27;;;;;;;10.77;69.94;98980.97;5033575;28;20028;-76
2023/04/23 03:30:52;;;;;;;18.52;14.27;;;;;;;10.93;69.86;99009.56;5033189;28;20040;-75
2023/04/23 03:33:17;;;;;;;20.23;14.10;;;;;;;11.06;69.72;99012.28;5033409;28;20053;-76
2023/04/23 03:35:42;;;;;;;21.55;14.38;;;;;;;10.99;69.50;98998.78;5033554;28;20017;-75
2023/04/23 03:38:08;;;;;;;19.58;13.98;;;;;;;10.93;69.68;98986.94;5033078;28;20029;-76
2023/04/23 03:40:33;;;;;;;21.90;13.95;;;;;;;10.94;69.47;98988.63;5033433;28;20469;-75
2023/04/23 03:42:58;;;;;;;20.40;13.57;;;;;;;11.06;69.15;98996.66;5033041;28;20579;-76
2023/04/23 03:45:24;;;;;;;18.58;12.75;;;;;;;11.13;69.08;98996.22;5033466;28;20540;-75
2023/04/23 03:47:50;;;;;;;16.77;12.23;;;;;;;11.14;68.91;98990.06;5033386;28;20103;-76
2023/04/23 03:50:16;;;;;;;16.52;12.25;;;;;;;11.14;68.64;98984.84;5032927;28;20472;-75
2023/04/23 03:52:42;;;;;;;20.63;12.98;;;;;;;11.24;68.47;99003.38;5033198;28;20272;-76
2023/04/23 03:55:08;;;;;;;21.38;14.63;;;;;;;11.19;68.39;98982.81;5032422;28;20029;-76
2023/04/23 03:57:34;;;;;;;19.98;14.73;;;;;;;11.39;68.41;99001.63;5033001;28;20095;-75
2023/04/23 04:00:00;;;;;;;22.90;14.38;;;;;;;11.10;68.68;98974.69;5032961;28;20028;-75
2023/04/23 04:02:25;;;;;;;22.17;15.38;;;;;;;11.17;68.68;98992.50;5032945;28;20112;-76
2023/04/23 04:04:51;;;;;;;23.95;15.70;;;;;;;11.19;68.47;98980.19;5033084;28;20451;-75
2023/04/23 04:07:17;;;;;;;31.35;27.80;;;;;;;11.37;68.42;99012.13;5032715;28;20373;-75
2023/04/23 04:09:42;;;;;;;24.05;15.43;;;;;;;11.29;68.45;98993.50;5033431;28;20045;-76
2023/04/23 04:12:07;;;;;;;17.27;13.55;;;;;;;11.31;68.40;98986.44;5032408;28;20033;-75
2023/04/23 04:14:33;;;;;;;22.38;15.35;;;;;;;11.64;67.85;99001.81;5032906;28;20026;-75
2023/04/23 04:16:58;;;;;;;15.27;12.23;;;;;;;11.64;67.56;98988.78;5032824;28;20457;-75
2023/04/23 04:19:24;;;;;;;24.45;16.50;;;;;;;11.86;67.33;99001.34;5032731;28;20037;-76
2023/04/23 04:21:50;;;;;;;27.50;17.17;;;;;;;12.02;66.53;99003.03;5032735;28;20045;-75
2023/04/23 04:24:17;;;;;;;42.45;28.13;;;;;;;11.86;66.79;98992.69;5032939;28;20071;-75
2023/04/23 04:26:43;;;;;;;24.92;19.88;;;;;;;11.88;66.99;98996.91;5032524;28;20037;-76
2023/04/23 04:29:09;;;;;;;33.42;22.13;;;;;;;11.78;67.14;98979.25;5030989;28;20377;-75
2023/04/23 04:31:34;;;;;;;25.83;16.83;;;;;;;11.80;66.84;98972.16;5032526;28;20025;-76
2023/04/23 04:34:00;;;;;;;22.30;15.55;;;;;;;11.79;66.87;98976.53;5032059;28;20479;-75
2023/04/23 04:36:27;;;;;;;21.35;15.82;;;;;;;11.98;66.67;98984.94;5032395;28;20358;-76
2023/04/23 04:38:54;;;;;;;20.67;14.73;;;;;;;11.82;67.00;98971.13;5032266;28;20037;-75
2023/04/23 04:41:21;;;;;;;27.17;17.27;;;;;;;11.94;66.55;98966.97;5032004;28;20037;-76
2023/04/23 04:43:47;;;;;;;23.27;16.40;;;;;;;12.18;66.33;98978.47;5032627;28;20037;-75
2023/04/23 04:46:12;;;;;;;29.10;18.75;;;;;;;12.41;65.34;98982.19;5032129;28;20380;-75
2023/04/23 04:48:38;;;;;;;29.85;19.60;;;;;;;12.77;64.80;98993.81;5032307;28;20109;-75
2023/04/23 04:51:03;;;;;;;25.42;18.40;;;;;;;13.10;63.52;98961.09;5031907;28;20021;-75
2023/04/23 04:53:29;;;;;;;23.27;17.92;;;;;;;13.75;62.24;98995.00;5032136;28;20029;-76
2023/04/23 04:55:54;;;;;;;24.27;18.67;;;;;;;14.08;61.37;98970.00;5032021;28;20420;-76
2023/04/23 04:58:20;;;;;;;21.90;15.43;;;;;;;14.52;60.28;98974.63;5031954;28;20536;-76
2023/04/23 05:00:46;;;;;;;22.95;17.40;;;;;;;14.99;58.99;98983.38;5032136;28;20033;-75
2023/04/23 05:03:12;;;;;;;23.83;18.13;;;;;;;15.44;57.98;98984.28;5031809;28;20033;-76
2023/04/23 05:05:37;;;;;;;25.13;15.27;;;;;;;16.38;55.61;98974.28;5032006;28;20028;-76
2023/04/23 05:08:02;;;;;;;19.23;14.90;;;;;;;17.32;53.75;98969.97;5031737;28;20481;-76
2023/04/23 05:10:28;;;;;;;19.70;13.65;;;;;;;17.92;51.84;98963.06;5031774;28;20021;-76
2023/04/23 05:12:56;;;;;;;22.42;15.00;;;;;;;18.01;51.38;98971.94;5031755;28;20068;-76
2023/04/23 05:15:21;;;;;;;16.60;13.18;;;;;;;17.86;52.16;98982.84;5031805;28;20079;-76
2023/04/23 05:17:46;;;;;;;22.90;13.82;;;;;;;17.73;52.16;98978.75;5031851;28;20406;-76
2023/04/23 05:20:13;;;;;;;18.10;13.40;;;;;;;17.63;51.96;98974.28;5031601;28;20037;-76
2023/04/23 05:22:40;;;;;;;17.63;12.80;;;;;;;18.00;51.45;98957.94;5031796;28;20041;-77
2023/04/23 05:25:07;;;;;;;21.15;13.57;;;;;;;19.12;49.70;98961.00;5031534;28;20500;-77
2023/04/23 05:27:33;;;;;;;19.13;14.63;;;;;;;20.11;47.56;98969.25;5031937;28;20037;-77
2023/04/23 05:30:00;;;;;;;18.98;12.40;;;;;;;20.44;46.97;98960.66;5031974;28;20028;-77
2023/04/23 05:32:26;;;;;;;16.13;13.07;;;;;;;20.21;47.43;98963.88;5031716;28;20144;-77
2023/04/23 05:34:51;;;;;;;19.75;13.20;;;;;;;19.76;48.08;98965.53;5032582;28;20093;-77
2023/04/23 05:37:16;;;;;;;17.10;11.93;;;;;;;19.18;48.76;98956.00;5031548;28;20196;-77
2023/04/23 05:39:42;;;;;;;14.00;11.13;;;;;;;18.95;49.46;98955.47;5032055;28;20022;-77
2023/04/23 05:42:07;;;;;;;16.27;12.55;;;;;;;20.05;47.49;98957.44;5031651;28;20384;-77
2023/04/23 05:44:32;;;;;;;16.13;11.48;;;;;;;21.13;45.66;98958.25;5031620;28;20473;-77
2023/04/23 05:46:58;;;;;;;15.85;12.18;;;;;;;22.08;44.10;98967.00;5031627;28;20533;-77
2023/04/23 05:49:23;;;;;;;12.23;10.90;;;;;;;21.73;44.46;98965.38;5031401;28;20028;-77
2023/04/23 05:51:50;;;;;;;15.38;11.60;;;;;;;21.70;45.31;98979.81;5031663;28;20029;-77
2023/04/23 05:54:15;;;;;;;13.57;10.05;;;;;;;21.57;44.90;98980.22;5031207;28;20025;-77
2023/04/23 05:56:41;;;;;;;14.85;11.20;;;;;;;21.22;45.35;98957.31;5031543;28;20091;-77
2023/04/23 05:59:06;;;;;;;15.10;9.40;;;;;;;21.66;44.64;98951.97;5031376;28;20025;-77
2023/04/23 06:01:31;;;;;;;14.95;10.90;;;;;;;22.00;43.86;98951.09;5031670;28;20041;-77
2023/04/23 06:03:57;;;;;;;13.07;10.23;;;;;;;22.11;43.82;98970.16;5031512;28;20386;-76
2023/04/23 06:06:22;;;;;;;13.32;10.20;;;;;;;22.53;43.50;98947.22;5031229;28;20025;-77
2023/04/23 06:08:49;;;;;;;13.80;9.70;;;;;;;22.82;43.24;98944.91;5031382;28;20021;-77
2023/04/23 06:11:15;;;;;;;14.18;10.35;;;;;;;22.81;43.28;98969.78;5031248;28;20470;-77
2023/04/23 06:13:41;;;;;;;15.13;11.45;;;;;;;22.69;43.60;98965.81;5031490;28;20112;-77
2023/04/23 06:16:07;;;;;;;13.73;10.80;;;;;;;23.08;43.73;98968.63;5031211;28;20584;-77
2023/04/23 06:18:33;;;;;;;15.07;10.15;;;;;;;23.17;42.93;98964.13;5034242;28;20022;-77
2023/04/23 06:21:03;;;;;;;14.13;9.77;;;;;;;23.06;43.09;98962.66;5034912;28;20457;-77
2023/04/23 06:23:29;;;;;;;14.85;11.15;;;;;;;22.70;43.52;98959.50;5035109;28;20075;-77
2023/04/23 06:25:54;;;;;;;14.63;10.45;;;;;;;22.72;43.45;98956.69;5034994;28;20029;-77
2023/04/23 06:28:20;;;;;;;14.15;11.02;;;;;;;22.88;43.22;98949.56;5034687;28;20018;-77
2023/04/23 06:30:45;;;;;;;12.82;10.55;;;;;;;23.25;42.45;98950.00;5034701;28;20155;-77
2023/04/23 06:33:11;;;;;;;16.95;11.23;;;;;;;24.19;41.85;98945.66;5034292;28;20057;-77
2023/04/23 06:35:36;;;;;;;13.10;9.68;;;;;;;25.14;40.97;98959.44;5034687;28;20507;-77
2023/04/23 06:38:02;;;;;;;13.10;9.90;;;;;;;26.17;39.05;98944.38;5034430;28;20044;-77
2023/04/23 06:40:27;;;;;;;14.73;10.75;;;;;;;28.08;37.02;98928.94;5034722;28;20032;-77
2023/04/23 06:42:52;;;;;;;14.20;9.75;;;;;;;29.72;35.39;98946.28;5034502;28;20025;-77
2023/04/23 06:45:18;;;;;;;10.27;9.18;;;;;;;30.38;35.18;98953.19;5034220;28;20029;-77
2023/04/23 06:47:44;;;;;;;12.20;10.15;;;;;;;29.93;34.07;98935.25;5034950;28;20448;-77
2023/04/23 06:50:09;;;;;;;13.15;9.98;;;;;;;28.95;34.88;98948.66;5034274;28;20536;-77
2023/04/23 06:52:35;;;;;;;14.60;10.55;;;;;;;29.80;34.77;98956.78;5032976;28;20029;-77
2023/04/23 06:55:00;;;;;;;11.00;9.90;;;;;;;32.13;32.59;98937.66;5034536;28;20053;-77
2023/04/23 06:57:27;;;;;;;11.57;10.38;;;;;;;33.97;30.99;98933.91;5033985;28;20030;-78
2023/04/23 06:59:52;;;;;;;11.07;9.68;;;;;;;35.76;29.39;98945.69;5034262;28;20430;-78
2023/04/23 07:02:18;;;;;;;14.25;10.00;;;;;;;35.32;29.55;98939.44;5034000;28;20112;-78
2023/04/23 07:04:43;;;;;;;10.95;9.85;;;;;;;35.55;29.30;98920.25;5034105;28;20105;-78
2023/04/23 07:07:08;;;;;;;13.77;10.43;;;;;;;36.65;28.81;98929.00;5033760;28;20021;-78
2023/04/23 07:09:34;;;;;;;14.02;9.70;;;;;;;37.29;28.20;98928.09;5034029;28;20025;-78
2023/04/23 07:12:00;;;;;;;12.93;9.55;;;;;;;38.19;27.50;98931.47;5034025;28;20136;-78
2023/04/23 07:14:25;;;;;;;11.75;10.65;;;;;;;39.06;27.19;98926.06;5033758;28;20546;-78
2023/04/23 07:16:51;;;;;;;17.45;11.18;;;;;;;40.08;26.25;98930.34;5033887;28;20060;-77
2023/04/23 07:19:16;;;;;;;10.05;9.05;;;;;;;38.50;27.16;98915.22;5033626;28;20056;-78
2023/04/23 07:21:41;;;;;;;12.77;10.35;;;;;;;37.01;28.38;98910.31;5033713;28;20037;-78
2023/04/23 07:24:07;;;;;;;10.90;9.43;;;;;;;37.08;28.05;98910.06;5033703;28;20025;-78
2023/04/23 07:26:33;;;;;;;11.18;9.95;;;;;;;37.20;28.08;98911.50;5033802;28;20496;-78
2023/04/23 07:29:00;;;;;;;11.63;10.23;;;;;;;38.15;27.41;98914.06;5032696;28;20431;-75
2023/04/23 07:31:25;;;;;;;10.85;9.75;;;;;;;38.42;27.42;98905.69;5033381;28;20065;-75
2023/04/23 07:33:51;;;;;;;11.55;9.73;;;;;;;36.72;28.55;98886.22;5033372;28;20076;-75
2023/04/23 07:36:16;;;;;;;11.15;9.52;;;;;;;36.58;28.26;98897.78;5033626;28;20468;-75
2023/04/23 07:38:41;;;;;;;10.77;9.13;;;;;;;36.92;28.47;98917.28;5033507;28;20037;-75
2023/04/23 07:41:07;;;;;;;10.68;8.98;;;;;;;35.77;29.38;98898.56;5033453;28;20033;-75
2023/04/23 07:43:32;;;;;;;10.55;9.48;;;;;;;36.47;28.74;98902.28;5033387;28;20021;-75
2023/04/23 07:45:58;;;;;;;13.88;9.65;;;;;;;34.42;30.38;98898.75;5033396;28;20029;-75
2023/04/23 07:48:23;;;;;;;13.02;9.55;;;;;;;34.26;30.67;98895.00;5033267;28;20061;-75
2023/04/23 07:50:48;;;;;;;11.25;9.73;;;;;;;34.55;30.32;98891.41;5033083;28;20021;-75
2023/04/23 07:53:14;;;;;;;10.73;9.60;;;;;;;35.27;29.91;98877.91;5032892;28;20075;-77
2023/04/23 07:55:39;;;;;;;12.25;9.10;;;;;;;35.28;29.56;98871.41;5033232;28;20030;-78
2023/04/23 07:58:05;;;;;;;9.82;8.88;;;;;;;36.18;29.41;98885.47;5033245;28;20018;-78
2023/04/23 08:00:30;;;;;;;10.68;8.77;;;;;;;37.12;28.53;98878.59;5032990;28;20520;-78
2023/04/23 08:02:55;;;;;;;17.80;9.77;;;;;;;35.60;29.69;98887.81;5032907;28;20032;-78
2023/04/23 08:05:21;;;;;;;8.93;7.88;;;;;;;34.34;30.51;98893.75;5032671;28;20061;-77
2023/04/23 08:07:46;;;;;;;11.18;7.80;;;;;;;35.21;30.09;98887.84;5033443;28;20036;-77
2023/04/23 08:10:11;;;;;;;11.68;8.05;;;;;;;35.89;29.51;98893.00;5032716;28;20033;-77
2023/04/23 08:12:37;;;;;;;11.25;7.72;;;;;;;37.17;29.21;98893.03;5032875;28;20032;-77
2023/04/23 08:15:02;;;;;;;8.90;8.00;;;;;;;36.62;28.90;98883.44;5032833;28;20473;-77
2023/04/23 08:17:28;;;;;;;8.63;7.80;;;;;;;36.19;29.02;98887.91;5032547;28;20029;-77
2023/04/23 08:19:53;;;;;;;7.85;7.07;;;;;;;36.58;28.77;98892.34;5032597;28;20512;-77
2023/04/23 08:22:18;;;;;;;9.10;8.20;;;;;;;33.19;31.35;98898.22;5032537;28;20029;-77
2023/04/23 08:24:45;;;;;;;10.05;7.93;;;;;;;30.89;33.77;98885.84;5032525;28;20025;-77
2023/04/23 08:27:10;;;;;;;8.88;7.00;;;;;;;29.45;35.83;98899.88;5032549;28;20025;-77
2023/04/23 08:29:36;;;;;;;11.18;7.30;;;;;;;27.45;37.71;98869.41;5032566;28;20032;-77
2023/04/23 08:32:01;;;;;;;11.27;7.22;;;;;;;25.90;40.20;98890.75;5032205;28;20029;-77
2023/04/23 08:34:26;;;;;;;10.18;7.70;;;;;;;25.00;41.20;98891.78;5032183;28;20033;-77
2023/04/23 08:36:52;;;;;;;10.02;7.95;;;;;;;24.03;43.01;98872.13;5032314;28;20366;-76
2023/04/23 08:39:17;;;;;;;10.98;7.57;;;;;;;23.67;43.69;98869.97;5032216;28;20507;-76
2023/04/23 08:41:48;;;;;;;10.10;7.78;;;;;;;23.55;44.35;98881.97;5032129;28;20112;-76
2023/04/23 08:44:18;;;;;;;10.65;8.70;;;;;;;23.03;45.59;98887.81;5032140;28;20025;-76
2023/04/23 08:46:44;;;;;;;11.05;7.32;;;;;;;23.02;45.80;98878.19;5032185;28;20033;-76
2023/04/23 08:49:14;;;;;;;11.90;7.25;;;;;;;23.41;45.67;98883.53;5031955;28;20049;-76
2023/04/23 08:51:45;;;;;;;13.60;7.15;;;;;;;23.23;46.03;98874.97;5032347;28;20469;-76
2023/04/23 08:54:17;;;;;;;11.82;7.95;;;;;;;23.14;46.18;98868.88;5032517;28;20543;-76
2023/04/23 08:56:43;;;;;;;12.88;7.40;;;;;;;23.32;46.31;98874.78;5032140;28;20064;-76
2023/04/23 08:59:09;;;;;;;9.57;7.05;;;;;;;23.06;46.33;98869.72;5032015;28;20076;-76
2023/04/23 09:01:35;;;;;;;10.88;7.70;;;;;;;22.93;46.86;98863.28;5031613;28;20029;-76
2023/04/23 09:04:01;;;;;;;8.80;7.40;;;;;;;22.83;47.65;98863.41;5032162;28;20378;-76
2023/04/23 09:06:26;;;;;;;15.27;7.22;;;;;;;23.08;47.30;98859.72;5031748;28;20065;-76
2023/04/23 09:08:54;;;;;;;9.10;7.05;;;;;;;23.32;47.19;98863.31;5032031;28;20057;-76
2023/04/23 09:11:21;;;;;;;13.73;6.78;;;;;;;23.35;46.47;98839.88;5031824;28;20034;-76
2023/04/23 09:13:46;;;;;;;8.38;6.95;;;;;;;23.51;46.60;98849.63;5031880;28;20021;-76
2023/04/23 09:16:12;;;;;;;9.02;7.20;;;;;;;23.52;46.84;98811.41;5032069;28;20033;-76
2023/04/23 09:18:37;;;;;;;10.75;7.38;;;;;;;23.76;46.66;98822.91;5031880;28;20147;-77
2023/04/23 09:21:04;;;;;;;12.43;7.70;;;;;;;23.62;47.13;98835.09;5031997;28;20072;-76
2023/04/23 09:23:30;;;;;;;9.48;7.60;;;;;;;23.41;48.20;98841.84;5031808;28;20112;-76
2023/04/23 09:25:56;;;;;;;12.13;6.90;;;;;;;23.34;48.48;98848.88;5031934;28;20176;-76
2023/04/23 09:28:33;;;;;;;10.07;6.30;;;;;;;23.26;47.84;98846.25;5031548;28;20455;-76
2023/04/23 09:30:59;;;;;;;10.50;7.65;;;;;;;22.99;47.62;98826.22;5031814;28;20427;-76
2023/04/23 09:33:27;;;;;;;10.85;7.32;;;;;;;22.81;48.43;98828.25;5031561;28;20120;-76
2023/04/23 09:35:52;;;;;;;9.45;6.70;;;;;;;22.96;48.45;98820.44;5031901;28;20496;-76
2023/04/23 09:38:18;;;;;;;11.38;6.53;;;;;;;23.24;48.87;98842.09;5031458;28;20030;-76
2023/04/23 09:40:44;;;;;;;10.45;6.78;;;;;;;22.82;48.14;98822.75;5031500;28;20409;-76
2023/04/23 09:43:10;;;;;;;9.77;6.35;;;;;;;22.70;48.50;98816.16;5032375;28;20033;-76
2023/04/23 09:45:35;;;;;;;8.02;5.75;;;;;;;22.69;48.66;98830.44;5031278;28;20092;-76
2023/04/23 09:48:01;;;;;;;7.85;6.13;;;;;;;22.80;48.64;98819.47;5031778;28;20030;-76
2023/04/23 09:50:37;;;;;;;8.20;5.63;;;;;;;23.23;48.42;98824.50;5031475;28;20419;-76
2023/04/23 09:53:07;;;;;;;8.02;6.00;;;;;;;23.64;47.85;98815.31;5033790;28;20026;-76
2023/04/23 09:55:37;;;;;;;8.23;6.28;;;;;;;23.75;46.89;98826.56;5035669;28;20040;-76
2023/04/23 09:58:10;;;;;;;11.73;6.30;;;;;;;23.47;46.62;98807.59;5035537;28;20037;-76
2023/04/23 10:00:37;;;;;;;7.78;5.22;;;;;;;23.56;46.79;98814.53;5035201;28;20472;-76
2023/04/23 10:03:05;;;;;;;6.43;5.63;;;;;;;23.95;46.46;98827.78;5035652;28;20053;-76
2023/04/23 10:05:31;;;;;;;6.28;5.57;;;;;;;24.17;46.05;98822.63;5035075;28;20033;-76
2023/04/23 10:07:56;;;;;;;5.38;4.75;;;;;;;23.86;45.05;98821.69;5035108;28;20391;-77
2023/04/23 10:10:23;;;;;;;9.68;5.50;;;;;;;23.67;45.94;98813.34;5034796;28;20415;-76
2023/04/23 10:12:51;;;;;;;5.65;4.82;;;;;;;24.02;45.35;98828.72;5035293;28;20029;-76
2023/04/23 10:15:16;;;;;;;10.57;6.13;;;;;;;23.90;45.00;98825.66;5035134;28;20030;-77
2023/04/23 10:17:42;;;;;;;11.25;5.45;;;;;;;24.00;45.09;98816.59;5034678;28;20450;-76
2023/04/23 10:20:08;;;;;;;7.10;5.28;;;;;;;24.11;45.28;98832.97;5035052;28;20338;-76
2023/04/23 10:22:36;;;;;;;8.90;5.00;;;;;;;24.09;44.17;98839.47;5034606;28;20112;-76
2023/04/23 10:25:09;;;;;;;8.10;5.75;;;;;;;24.03;45.11;98840.19;5034614;28;20063;-77
2023/04/23 10:27:38;;;;;;;9.55;7.18;;;;;;;24.08;45.30;98827.19;5034714;28;20081;-77
2023/04/23 10:30:05;;;;;;;8.25;5.85;;;;;;;24.35;44.84;98837.25;5034903;28;20030;-77
2023/04/23 10:32:32;;;;;;;8.68;6.95;;;;;;;24.46;45.02;98836.03;5034578;28;20132;-76
2023/04/23 10:34:57;;;;;;;11.93;7.50;;;;;;;24.43;44.84;98830.25;5034786;28;20029;-76
2023/04/23 10:37:24;;;;;;;10.20;7.30;;;;;;;24.35;45.49;98823.94;5034347;28;20075;-76
2023/04/23 10:39:54;;;;;;;10.95;6.07;;;;;;;24.31;44.99;98821.81;5034702;28;20105;-76
2023/04/23 10:42:20;;;;;;;10.18;6.50;;;;;;;24.33;45.62;98817.16;5034514;28;20025;-76
2023/04/23 10:44:45;;;;;;;9.30;6.03;;;;;;;24.26;45.86;98830.34;5034567;28;20025;-76
2023/04/23 10:47:16;;;;;;;8.38;6.35;;;;;;;24.12;46.16;98831.97;5034515;28;20079;-77
2023/04/23 10:49:44;;;;;;;7.47;5.53;;;;;;;24.07;46.51;98809.56;5034228;28;20089;-76
2023/04/23 10:52:15;;;;;;;9.23;5.00;;;;;;;24.15;46.33;98834.28;5034218;28;20064;-76
2023/04/23 10:54:42;;;;;;;8.55;5.40;;;;;;;23.88;46.41;98794.91;5034059;28;20516;-77
2023/04/23 10:57:08;;;;;;;5.90;4.97;;;;;;;24.20;46.59;98831.09;5034461;28;20083;-77
2023/04/23 10:59:39;;;;;;;9.32;5.28;;;;;;;23.81;46.97;98823.22;5033939;28;20381;-77
2023/04/23 11:02:05;;;;;;;10.10;5.72;;;;;;;23.96;46.45;98824.09;5032822;28;20431;-77
2023/04/23 11:04:32;;;;;;;8.10;5.80;;;;;;;24.06;47.09;98818.53;5034108;28;20477;-76
2023/04/23 11:07:07;;;;;;;7.07;6.00;;;;;;;24.41;47.27;98827.78;5034052;28;20037;-76
2023/04/23 11:09:37;;;;;;;7.60;5.28;;;;;;;24.62;46.52;98840.41;5034106;28;20032;-76
2023/04/23 11:12:31;;;;;;;6.25;5.30;;;;;;;24.68;46.38;98817.53;5032772;28;20444;-77
2023/04/23 11:14:58;;;;;;;5.82;5.03;;;;;;;24.99;45.76;98841.31;5011696;28;20038;-77
2023/04/23 11:17:43;;;;;;;6.75;5.05;;;;;;;24.88;45.92;98840.78;5011408;28;20405;-77